sensor_id;sensor_type;location;lat;lon;timestamp;P1;durP1;ratioP1;P2;durP2;ratioP2
69161;SDS011;56269;51.738;21.652;2022-07-29T00:01:25;11.37;;;4.63;;
69161;SDS011;56269;51.738;21.652;2022-07-29T00:03:50;11.73;;;5.10;;
69161;SDS011;56269;51.738;21.652;2022-07-29T00:06:17;11.85;;;5.07;;
69161;SDS011;56269;51.738;21.652;2022-07-29T00:08:42;11.05;;;4.80;;
69161;SDS011;56269;51.738;21.652;2022-07-29T00:11:08;11.03;;;5.17;;
69161;SDS011;56269;51.738;21.652;2022-07-29T00:13:35;12.32;;;5.00;;
69161;SDS011;56269;51.738;21.652;2022-07-29T00:16:00;11.25;;;5.00;;
69161;SDS011;56269;51.738;21.652;2022-07-29T00:18:26;12.52;;;5.30;;
69161;SDS011;56269;51.738;21.652;2022-07-29T00:20:53;10.07;;;4.97;;
69161;SDS011;56269;51.738;21.652;2022-07-29T00:23:19;12.85;;;5.15;;
69161;SDS011;56269;51.738;21.652;2022-07-29T00:25:45;10.80;;;4.93;;
69161;SDS011;56269;51.738;21.652;2022-07-29T00:28:11;10.52;;;4.85;;
69161;SDS011;56269;51.738;21.652;2022-07-29T00:30:37;9.17;;;4.80;;
69161;SDS011;56269;51.738;21.652;2022-07-29T00:33:03;10.20;;;4.57;;
69161;SDS011;56269;51.738;21.652;2022-07-29T00:35:29;13.25;;;4.65;;
69161;SDS011;56269;51.738;21.652;2022-07-29T00:38:13;10.55;;;4.97;;
69161;SDS011;56269;51.738;21.652;2022-07-29T00:40:42;10.00;;;5.13;;
69161;SDS011;56269;51.738;21.652;2022-07-29T00:43:10;14.03;;;5.87;;
69161;SDS011;56269;51.738;21.652;2022-07-29T00:45:36;12.90;;;5.70;;
69161;SDS011;56269;51.738;21.652;2022-07-29T00:48:03;12.27;;;5.57;;
69161;SDS011;56269;51.738;21.652;2022-07-29T00:50:30;10.77;;;5.30;;
69161;SDS011;56269;51.738;21.652;2022-07-29T00:52:57;11.90;;;6.00;;
69161;SDS011;56269;51.738;21.652;2022-07-29T00:55:24;11.73;;;5.60;;
69161;SDS011;56269;51.738;21.652;2022-07-29T00:57:50;14.90;;;5.97;;
69161;SDS011;56269;51.738;21.652;2022-07-29T01:00:19;11.40;;;5.78;;
69161;SDS011;56269;51.738;21.652;2022-07-29T01:02:47;14.70;;;5.90;;
69161;SDS011;56269;51.738;21.652;2022-07-29T01:05:14;10.00;;;5.38;;
69161;SDS011;56269;51.738;21.652;2022-07-29T01:07:46;10.60;;;5.37;;
69161;SDS011;56269;51.738;21.652;2022-07-29T01:10:14;12.75;;;5.80;;
69161;SDS011;56269;51.738;21.652;2022-07-29T01:12:41;11.00;;;5.28;;
69161;SDS011;56269;51.738;21.652;2022-07-29T01:15:10;12.15;;;5.70;;
69161;SDS011;56269;51.738;21.652;2022-07-29T01:26:02;14.15;;;6.07;;
69161;SDS011;56269;51.738;21.652;2022-07-29T01:31:31;11.95;;;6.45;;
69161;SDS011;56269;51.738;21.652;2022-07-29T01:34:07;13.67;;;6.70;;
69161;SDS011;56269;51.738;21.652;2022-07-29T01:36:37;13.30;;;6.60;;
69161;SDS011;56269;51.738;21.652;2022-07-29T01:39:10;15.55;;;6.10;;
69161;SDS011;56269;51.738;21.652;2022-07-29T01:41:40;11.05;;;5.43;;
69161;SDS011;56269;51.738;21.652;2022-07-29T01:44:17;10.45;;;5.93;;
69161;SDS011;56269;51.738;21.652;2022-07-29T01:46:56;11.70;;;5.83;;
69161;SDS011;56269;51.738;21.652;2022-07-29T01:49:27;11.85;;;5.97;;
69161;SDS011;56269;51.738;21.652;2022-07-29T01:52:08;12.23;;;5.93;;
69161;SDS011;56269;51.738;21.652;2022-07-29T01:54:43;12.23;;;6.22;;
69161;SDS011;56269;51.738;21.652;2022-07-29T01:57:14;11.13;;;6.07;;
69161;SDS011;56269;51.738;21.652;2022-07-29T01:59:46;13.77;;;5.83;;
69161;SDS011;56269;51.738;21.652;2022-07-29T02:02:14;10.15;;;5.55;;
69161;SDS011;56269;51.738;21.652;2022-07-29T02:04:42;11.48;;;6.20;;
69161;SDS011;56269;51.738;21.652;2022-07-29T02:07:12;13.35;;;5.80;;
69161;SDS011;56269;51.738;21.652;2022-07-29T02:09:42;14.27;;;6.63;;
69161;SDS011;56269;51.738;21.652;2022-07-29T02:12:10;14.37;;;6.33;;
69161;SDS011;56269;51.738;21.652;2022-07-29T02:14:40;13.30;;;6.35;;
69161;SDS011;56269;51.738;21.652;2022-07-29T02:17:10;12.40;;;6.20;;
69161;SDS011;56269;51.738;21.652;2022-07-29T02:19:37;14.60;;;6.30;;
69161;SDS011;56269;51.738;21.652;2022-07-29T02:22:06;13.00;;;6.32;;
69161;SDS011;56269;51.738;21.652;2022-07-29T02:24:35;13.13;;;6.80;;
69161;SDS011;56269;51.738;21.652;2022-07-29T02:27:02;12.85;;;6.13;;
69161;SDS011;56269;51.738;21.652;2022-07-29T02:29:29;11.15;;;5.80;;
69161;SDS011;56269;51.738;21.652;2022-07-29T02:31:58;10.40;;;5.82;;
69161;SDS011;56269;51.738;21.652;2022-07-29T02:34:25;14.43;;;5.95;;
69161;SDS011;56269;51.738;21.652;2022-07-29T02:36:54;11.50;;;5.50;;
69161;SDS011;56269;51.738;21.652;2022-07-29T02:39:21;10.43;;;5.60;;
69161;SDS011;56269;51.738;21.652;2022-07-29T02:41:58;9.38;;;5.00;;
69161;SDS011;56269;51.738;21.652;2022-07-29T02:44:29;13.52;;;5.75;;
69161;SDS011;56269;51.738;21.652;2022-07-29T02:49:37;11.53;;;5.87;;
69161;SDS011;56269;51.738;21.652;2022-07-29T02:52:12;10.38;;;5.45;;
69161;SDS011;56269;51.738;21.652;2022-07-29T02:54:55;14.10;;;5.22;;
69161;SDS011;56269;51.738;21.652;2022-07-29T02:57:22;10.63;;;5.57;;
69161;SDS011;56269;51.738;21.652;2022-07-29T03:00:05;13.15;;;6.20;;
69161;SDS011;56269;51.738;21.652;2022-07-29T03:02:34;10.83;;;5.57;;
69161;SDS011;56269;51.738;21.652;2022-07-29T03:05:07;11.80;;;5.75;;
69161;SDS011;56269;51.738;21.652;2022-07-29T03:07:35;12.57;;;6.05;;
69161;SDS011;56269;51.738;21.652;2022-07-29T03:10:03;16.83;;;6.55;;
69161;SDS011;56269;51.738;21.652;2022-07-29T03:12:30;15.43;;;6.50;;
69161;SDS011;56269;51.738;21.652;2022-07-29T03:14:56;29.93;;;7.13;;
69161;SDS011;56269;51.738;21.652;2022-07-29T03:17:24;16.38;;;7.18;;
69161;SDS011;56269;51.738;21.652;2022-07-29T03:19:51;15.07;;;6.60;;
69161;SDS011;56269;51.738;21.652;2022-07-29T03:22:17;15.05;;;7.05;;
69161;SDS011;56269;51.738;21.652;2022-07-29T03:24:43;13.70;;;7.30;;
69161;SDS011;56269;51.738;21.652;2022-07-29T03:27:09;15.30;;;7.10;;
69161;SDS011;56269;51.738;21.652;2022-07-29T03:29:35;13.98;;;7.20;;
69161;SDS011;56269;51.738;21.652;2022-07-29T03:32:02;13.10;;;6.93;;
69161;SDS011;56269;51.738;21.652;2022-07-29T03:34:30;14.63;;;7.95;;
69161;SDS011;56269;51.738;21.652;2022-07-29T03:36:56;17.33;;;7.47;;
69161;SDS011;56269;51.738;21.652;2022-07-29T03:39:23;16.98;;;7.78;;
69161;SDS011;56269;51.738;21.652;2022-07-29T03:41:52;15.45;;;7.97;;
69161;SDS011;56269;51.738;21.652;2022-07-29T03:44:20;15.52;;;7.72;;
69161;SDS011;56269;51.738;21.652;2022-07-29T03:46:48;15.32;;;7.47;;
69161;SDS011;56269;51.738;21.652;2022-07-29T03:49:16;14.03;;;7.10;;
69161;SDS011;56269;51.738;21.652;2022-07-29T03:51:44;15.90;;;7.75;;
69161;SDS011;56269;51.738;21.652;2022-07-29T03:54:10;15.20;;;7.40;;
69161;SDS011;56269;51.738;21.652;2022-07-29T03:56:37;15.48;;;7.90;;
69161;SDS011;56269;51.738;21.652;2022-07-29T03:59:06;14.13;;;6.82;;
69161;SDS011;56269;51.738;21.652;2022-07-29T04:01:33;11.80;;;6.53;;
69161;SDS011;56269;51.738;21.652;2022-07-29T04:04:00;12.85;;;6.82;;
69161;SDS011;56269;51.738;21.652;2022-07-29T04:06:27;11.48;;;6.38;;
69161;SDS011;56269;51.738;21.652;2022-07-29T04:08:53;12.23;;;5.75;;
69161;SDS011;56269;51.738;21.652;2022-07-29T04:11:19;13.68;;;5.55;;
69161;SDS011;56269;51.738;21.652;2022-07-29T04:13:45;14.47;;;6.30;;
69161;SDS011;56269;51.738;21.652;2022-07-29T04:16:11;13.52;;;6.80;;
69161;SDS011;56269;51.738;21.652;2022-07-29T04:18:37;13.65;;;6.00;;
69161;SDS011;56269;51.738;21.652;2022-07-29T04:21:03;12.52;;;5.70;;
69161;SDS011;56269;51.738;21.652;2022-07-29T04:23:35;11.73;;;5.93;;
69161;SDS011;56269;51.738;21.652;2022-07-29T04:26:01;12.23;;;5.18;;
69161;SDS011;56269;51.738;21.652;2022-07-29T04:28:27;11.02;;;5.32;;
69161;SDS011;56269;51.738;21.652;2022-07-29T04:30:52;9.57;;;4.27;;
69161;SDS011;56269;51.738;21.652;2022-07-29T04:33:19;7.78;;;3.80;;
69161;SDS011;56269;51.738;21.652;2022-07-29T04:35:45;6.70;;;3.42;;
69161;SDS011;56269;51.738;21.652;2022-07-29T04:38:10;7.53;;;3.20;;
69161;SDS011;56269;51.738;21.652;2022-07-29T04:40:36;7.70;;;3.30;;
69161;SDS011;56269;51.738;21.652;2022-07-29T04:43:02;7.82;;;3.20;;
69161;SDS011;56269;51.738;21.652;2022-07-29T04:45:28;5.82;;;3.00;;
69161;SDS011;56269;51.738;21.652;2022-07-29T04:47:55;7.40;;;2.97;;
69161;SDS011;56269;51.738;21.652;2022-07-29T04:50:21;7.07;;;3.00;;
69161;SDS011;56269;51.738;21.652;2022-07-29T04:52:47;5.78;;;2.78;;
69161;SDS011;56269;51.738;21.652;2022-07-29T04:55:13;7.05;;;2.80;;
69161;SDS011;56269;51.738;21.652;2022-07-29T04:57:39;6.15;;;2.50;;
69161;SDS011;56269;51.738;21.652;2022-07-29T05:00:06;6.85;;;2.70;;
69161;SDS011;56269;51.738;21.652;2022-07-29T05:02:33;6.73;;;2.60;;
69161;SDS011;56269;51.738;21.652;2022-07-29T05:04:59;6.78;;;2.30;;
69161;SDS011;56269;51.738;21.652;2022-07-29T05:07:24;6.72;;;2.30;;
69161;SDS011;56269;51.738;21.652;2022-07-29T05:09:51;4.90;;;2.30;;
69161;SDS011;56269;51.738;21.652;2022-07-29T05:12:17;6.03;;;2.17;;
69161;SDS011;56269;51.738;21.652;2022-07-29T05:14:44;6.57;;;2.30;;
69161;SDS011;56269;51.738;21.652;2022-07-29T05:17:10;5.15;;;2.15;;
69161;SDS011;56269;51.738;21.652;2022-07-29T05:19:36;5.13;;;2.10;;
69161;SDS011;56269;51.738;21.652;2022-07-29T05:22:02;5.13;;;2.10;;
69161;SDS011;56269;51.738;21.652;2022-07-29T05:24:28;6.05;;;1.92;;
69161;SDS011;56269;51.738;21.652;2022-07-29T05:26:54;5.90;;;1.90;;
69161;SDS011;56269;51.738;21.652;2022-07-29T05:29:20;6.30;;;2.00;;
69161;SDS011;56269;51.738;21.652;2022-07-29T05:31:46;5.77;;;1.90;;
69161;SDS011;56269;51.738;21.652;2022-07-29T05:34:12;5.22;;;1.88;;
69161;SDS011;56269;51.738;21.652;2022-07-29T05:36:38;6.22;;;2.08;;
69161;SDS011;56269;51.738;21.652;2022-07-29T05:39:04;4.90;;;1.90;;
69161;SDS011;56269;51.738;21.652;2022-07-29T05:41:33;43.87;;;2.53;;
69161;SDS011;56269;51.738;21.652;2022-07-29T05:43:59;5.60;;;1.70;;
69161;SDS011;56269;51.738;21.652;2022-07-29T05:46:25;5.20;;;2.03;;
69161;SDS011;56269;51.738;21.652;2022-07-29T05:48:51;4.78;;;1.70;;
69161;SDS011;56269;51.738;21.652;2022-07-29T05:51:17;4.23;;;1.60;;
69161;SDS011;56269;51.738;21.652;2022-07-29T05:53:43;6.60;;;1.88;;
69161;SDS011;56269;51.738;21.652;2022-07-29T05:56:10;5.25;;;1.85;;
69161;SDS011;56269;51.738;21.652;2022-07-29T05:58:36;6.10;;;1.60;;
69161;SDS011;56269;51.738;21.652;2022-07-29T06:01:02;6.13;;;1.70;;
69161;SDS011;56269;51.738;21.652;2022-07-29T06:03:28;5.20;;;1.97;;
69161;SDS011;56269;51.738;21.652;2022-07-29T06:05:54;4.43;;;1.60;;
69161;SDS011;56269;51.738;21.652;2022-07-29T06:08:20;5.05;;;1.80;;
69161;SDS011;56269;51.738;21.652;2022-07-29T06:10:46;5.35;;;1.77;;
69161;SDS011;56269;51.738;21.652;2022-07-29T06:13:12;5.15;;;1.70;;
69161;SDS011;56269;51.738;21.652;2022-07-29T06:15:41;5.87;;;1.70;;
69161;SDS011;56269;51.738;21.652;2022-07-29T06:18:08;5.50;;;1.88;;
69161;SDS011;56269;51.738;21.652;2022-07-29T06:20:35;4.88;;;1.83;;
69161;SDS011;56269;51.738;21.652;2022-07-29T06:23:02;6.93;;;2.20;;
69161;SDS011;56269;51.738;21.652;2022-07-29T06:25:30;6.35;;;2.15;;
69161;SDS011;56269;51.738;21.652;2022-07-29T06:28:00;6.27;;;1.90;;
69161;SDS011;56269;51.738;21.652;2022-07-29T06:30:26;6.43;;;1.80;;
69161;SDS011;56269;51.738;21.652;2022-07-29T06:32:54;5.93;;;1.90;;
69161;SDS011;56269;51.738;21.652;2022-07-29T06:35:20;6.78;;;1.80;;
69161;SDS011;56269;51.738;21.652;2022-07-29T06:37:47;4.15;;;1.60;;
69161;SDS011;56269;51.738;21.652;2022-07-29T06:40:13;3.37;;;1.30;;
69161;SDS011;56269;51.738;21.652;2022-07-29T06:42:57;6.30;;;1.70;;
69161;SDS011;56269;51.738;21.652;2022-07-29T06:45:23;4.80;;;1.60;;
69161;SDS011;56269;51.738;21.652;2022-07-29T06:47:49;5.82;;;1.60;;
69161;SDS011;56269;51.738;21.652;2022-07-29T06:50:16;5.40;;;1.70;;
69161;SDS011;56269;51.738;21.652;2022-07-29T06:52:41;4.93;;;1.60;;
69161;SDS011;56269;51.738;21.652;2022-07-29T06:55:08;4.47;;;1.60;;
69161;SDS011;56269;51.738;21.652;2022-07-29T06:57:34;4.15;;;1.67;;
69161;SDS011;56269;51.738;21.652;2022-07-29T07:00:00;4.47;;;1.57;;
69161;SDS011;56269;51.738;21.652;2022-07-29T07:02:26;4.65;;;1.50;;
69161;SDS011;56269;51.738;21.652;2022-07-29T07:04:52;4.03;;;1.40;;
69161;SDS011;56269;51.738;21.652;2022-07-29T07:07:18;6.07;;;1.60;;
69161;SDS011;56269;51.738;21.652;2022-07-29T07:09:44;4.75;;;1.50;;
69161;SDS011;56269;51.738;21.652;2022-07-29T07:12:10;4.95;;;1.67;;
69161;SDS011;56269;51.738;21.652;2022-07-29T07:14:36;4.85;;;1.60;;
69161;SDS011;56269;51.738;21.652;2022-07-29T07:17:02;4.80;;;1.40;;
69161;SDS011;56269;51.738;21.652;2022-07-29T07:19:29;3.80;;;1.40;;
69161;SDS011;56269;51.738;21.652;2022-07-29T07:21:55;5.93;;;1.38;;
69161;SDS011;56269;51.738;21.652;2022-07-29T07:24:21;4.63;;;1.60;;
69161;SDS011;56269;51.738;21.652;2022-07-29T07:26:47;5.50;;;1.57;;
69161;SDS011;56269;51.738;21.652;2022-07-29T07:29:13;4.93;;;1.60;;
69161;SDS011;56269;51.738;21.652;2022-07-29T07:31:39;4.47;;;1.92;;
69161;SDS011;56269;51.738;21.652;2022-07-29T07:34:05;5.65;;;1.45;;
69161;SDS011;56269;51.738;21.652;2022-07-29T07:36:30;5.73;;;1.70;;
69161;SDS011;56269;51.738;21.652;2022-07-29T07:38:56;6.22;;;1.40;;
69161;SDS011;56269;51.738;21.652;2022-07-29T07:41:22;5.60;;;1.50;;
69161;SDS011;56269;51.738;21.652;2022-07-29T07:43:48;7.27;;;1.63;;
69161;SDS011;56269;51.738;21.652;2022-07-29T07:46:14;5.38;;;1.30;;
69161;SDS011;56269;51.738;21.652;2022-07-29T07:48:41;8.10;;;1.70;;
69161;SDS011;56269;51.738;21.652;2022-07-29T07:51:07;5.00;;;1.42;;
69161;SDS011;56269;51.738;21.652;2022-07-29T07:53:33;6.33;;;1.60;;
69161;SDS011;56269;51.738;21.652;2022-07-29T07:55:59;5.63;;;1.52;;
69161;SDS011;56269;51.738;21.652;2022-07-29T07:58:25;5.10;;;1.50;;
69161;SDS011;56269;51.738;21.652;2022-07-29T08:00:51;4.72;;;1.50;;
69161;SDS011;56269;51.738;21.652;2022-07-29T08:03:17;5.82;;;1.80;;
69161;SDS011;56269;51.738;21.652;2022-07-29T08:05:43;3.87;;;1.57;;
69161;SDS011;56269;51.738;21.652;2022-07-29T08:08:09;5.07;;;1.60;;
69161;SDS011;56269;51.738;21.652;2022-07-29T08:10:35;5.00;;;1.60;;
69161;SDS011;56269;51.738;21.652;2022-07-29T08:13:22;4.85;;;1.60;;
69161;SDS011;56269;51.738;21.652;2022-07-29T08:15:51;4.20;;;1.50;;
69161;SDS011;56269;51.738;21.652;2022-07-29T08:18:26;6.05;;;1.67;;
69161;SDS011;56269;51.738;21.652;2022-07-29T08:20:53;11.50;;;1.63;;
69161;SDS011;56269;51.738;21.652;2022-07-29T08:23:20;5.15;;;1.40;;
69161;SDS011;56269;51.738;21.652;2022-07-29T08:25:46;4.95;;;1.40;;
69161;SDS011;56269;51.738;21.652;2022-07-29T08:28:13;5.03;;;1.47;;
69161;SDS011;56269;51.738;21.652;2022-07-29T08:30:40;5.63;;;1.42;;
69161;SDS011;56269;51.738;21.652;2022-07-29T08:33:06;12.80;;;1.80;;
69161;SDS011;56269;51.738;21.652;2022-07-29T08:35:32;5.95;;;1.60;;
69161;SDS011;56269;51.738;21.652;2022-07-29T08:37:58;5.55;;;1.70;;
69161;SDS011;56269;51.738;21.652;2022-07-29T08:40:24;4.80;;;1.40;;
69161;SDS011;56269;51.738;21.652;2022-07-29T08:42:51;6.97;;;1.60;;
69161;SDS011;56269;51.738;21.652;2022-07-29T08:45:17;5.15;;;1.60;;
69161;SDS011;56269;51.738;21.652;2022-07-29T08:47:44;5.38;;;1.60;;
69161;SDS011;56269;51.738;21.652;2022-07-29T08:50:10;6.28;;;1.20;;
69161;SDS011;56269;51.738;21.652;2022-07-29T08:52:37;4.47;;;1.33;;
69161;SDS011;56269;51.738;21.652;2022-07-29T08:55:05;4.03;;;1.10;;
69161;SDS011;56269;51.738;21.652;2022-07-29T08:57:33;4.13;;;1.30;;
69161;SDS011;56269;51.738;21.652;2022-07-29T09:00:04;4.57;;;1.38;;
69161;SDS011;56269;51.738;21.652;2022-07-29T09:02:33;4.63;;;1.30;;
69161;SDS011;56269;51.738;21.652;2022-07-29T09:05:02;4.87;;;1.30;;
69161;SDS011;56269;51.738;21.652;2022-07-29T09:07:30;5.43;;;1.50;;
69161;SDS011;56269;51.738;21.652;2022-07-29T09:09:56;4.57;;;1.40;;
69161;SDS011;56269;51.738;21.652;2022-07-29T09:12:23;5.15;;;1.70;;
69161;SDS011;56269;51.738;21.652;2022-07-29T09:14:50;5.40;;;1.40;;
69161;SDS011;56269;51.738;21.652;2022-07-29T09:17:16;4.50;;;1.20;;
69161;SDS011;56269;51.738;21.652;2022-07-29T09:19:43;4.57;;;1.30;;
69161;SDS011;56269;51.738;21.652;2022-07-29T09:22:09;5.38;;;1.63;;
69161;SDS011;56269;51.738;21.652;2022-07-29T09:24:46;3.55;;;1.20;;
69161;SDS011;56269;51.738;21.652;2022-07-29T09:27:23;2.95;;;1.20;;
69161;SDS011;56269;51.738;21.652;2022-07-29T09:29:55;3.53;;;1.20;;
69161;SDS011;56269;51.738;21.652;2022-07-29T09:32:24;5.07;;;1.55;;
69161;SDS011;56269;51.738;21.652;2022-07-29T09:35:13;4.25;;;1.40;;
69161;SDS011;56269;51.738;21.652;2022-07-29T09:37:42;5.05;;;1.40;;
69161;SDS011;56269;51.738;21.652;2022-07-29T09:40:16;6.45;;;1.52;;
69161;SDS011;56269;51.738;21.652;2022-07-29T09:42:46;4.67;;;1.47;;
69161;SDS011;56269;51.738;21.652;2022-07-29T09:45:26;4.38;;;1.20;;
69161;SDS011;56269;51.738;21.652;2022-07-29T09:47:56;4.65;;;1.50;;
69161;SDS011;56269;51.738;21.652;2022-07-29T09:50:38;4.78;;;1.38;;
69161;SDS011;56269;51.738;21.652;2022-07-29T09:53:05;3.75;;;1.20;;
69161;SDS011;56269;51.738;21.652;2022-07-29T09:55:31;3.63;;;1.30;;
69161;SDS011;56269;51.738;21.652;2022-07-29T10:00:47;3.35;;;1.30;;
69161;SDS011;56269;51.738;21.652;2022-07-29T10:03:15;7.07;;;1.60;;
69161;SDS011;56269;51.738;21.652;2022-07-29T10:05:42;3.13;;;1.10;;
69161;SDS011;56269;51.738;21.652;2022-07-29T10:08:09;2.77;;;1.20;;
69161;SDS011;56269;51.738;21.652;2022-07-29T10:10:40;8.10;;;1.38;;
69161;SDS011;56269;51.738;21.652;2022-07-29T10:13:08;4.38;;;1.30;;
69161;SDS011;56269;51.738;21.652;2022-07-29T10:15:37;3.85;;;1.20;;
69161;SDS011;56269;51.738;21.652;2022-07-29T10:18:08;3.85;;;1.38;;
69161;SDS011;56269;51.738;21.652;2022-07-29T10:20:36;3.87;;;1.30;;
69161;SDS011;56269;51.738;21.652;2022-07-29T10:23:03;3.92;;;1.30;;
69161;SDS011;56269;51.738;21.652;2022-07-29T10:25:31;3.97;;;1.20;;
69161;SDS011;56269;51.738;21.652;2022-07-29T10:27:57;4.18;;;1.45;;
69161;SDS011;56269;51.738;21.652;2022-07-29T10:30:24;3.03;;;1.35;;
69161;SDS011;56269;51.738;21.652;2022-07-29T10:32:57;4.70;;;1.30;;
69161;SDS011;56269;51.738;21.652;2022-07-29T10:38:41;4.13;;;1.23;;
69161;SDS011;56269;51.738;21.652;2022-07-29T10:41:37;4.47;;;1.30;;
69161;SDS011;56269;51.738;21.652;2022-07-29T10:44:13;5.25;;;1.48;;
69161;SDS011;56269;51.738;21.652;2022-07-29T10:46:40;3.97;;;1.40;;
69161;SDS011;56269;51.738;21.652;2022-07-29T10:49:25;5.28;;;1.40;;
69161;SDS011;56269;51.738;21.652;2022-07-29T10:52:03;3.95;;;1.20;;
69161;SDS011;56269;51.738;21.652;2022-07-29T10:54:44;5.38;;;1.50;;
69161;SDS011;56269;51.738;21.652;2022-07-29T10:59:48;4.33;;;1.30;;
69161;SDS011;56269;51.738;21.652;2022-07-29T11:05:07;3.50;;;1.15;;
69161;SDS011;56269;51.738;21.652;2022-07-29T11:07:36;3.97;;;1.30;;
69161;SDS011;56269;51.738;21.652;2022-07-29T11:15:07;5.07;;;1.40;;
69161;SDS011;56269;51.738;21.652;2022-07-29T11:23:33;7.20;;;1.77;;
69161;SDS011;56269;51.738;21.652;2022-07-29T11:31:32;4.45;;;1.40;;
69161;SDS011;56269;51.738;21.652;2022-07-29T11:34:20;5.00;;;1.35;;
69161;SDS011;56269;51.738;21.652;2022-07-29T11:37:22;3.92;;;1.30;;
69161;SDS011;56269;51.738;21.652;2022-07-29T11:39:42;4.33;;;1.30;;
69161;SDS011;56269;51.738;21.652;2022-07-29T11:44:56;5.63;;;1.52;;
69161;SDS011;56269;51.738;21.652;2022-07-29T11:47:31;5.65;;;1.27;;
69161;SDS011;56269;51.738;21.652;2022-07-29T11:49:59;4.13;;;1.20;;
69161;SDS011;56269;51.738;21.652;2022-07-29T11:52:39;4.43;;;1.30;;
69161;SDS011;56269;51.738;21.652;2022-07-29T11:55:12;5.35;;;1.20;;
69161;SDS011;56269;51.738;21.652;2022-07-29T11:57:49;5.80;;;1.27;;
69161;SDS011;56269;51.738;21.652;2022-07-29T12:00:22;3.75;;;1.25;;
69161;SDS011;56269;51.738;21.652;2022-07-29T12:02:53;4.53;;;1.45;;
69161;SDS011;56269;51.738;21.652;2022-07-29T12:05:20;5.43;;;1.23;;
69161;SDS011;56269;51.738;21.652;2022-07-29T12:07:47;3.83;;;1.25;;
69161;SDS011;56269;51.738;21.652;2022-07-29T12:10:14;4.45;;;1.40;;
69161;SDS011;56269;51.738;21.652;2022-07-29T12:12:40;5.70;;;1.20;;
69161;SDS011;56269;51.738;21.652;2022-07-29T12:15:24;3.95;;;1.17;;
69161;SDS011;56269;51.738;21.652;2022-07-29T12:17:51;3.50;;;1.30;;
69161;SDS011;56269;51.738;21.652;2022-07-29T12:20:25;5.28;;;1.35;;
69161;SDS011;56269;51.738;21.652;2022-07-29T12:22:52;5.47;;;1.60;;
69161;SDS011;56269;51.738;21.652;2022-07-29T12:25:19;5.38;;;1.48;;
69161;SDS011;56269;51.738;21.652;2022-07-29T12:27:46;4.03;;;1.50;;
69161;SDS011;56269;51.738;21.652;2022-07-29T12:30:13;5.37;;;1.57;;
69161;SDS011;56269;51.738;21.652;2022-07-29T12:32:47;4.10;;;1.20;;
69161;SDS011;56269;51.738;21.652;2022-07-29T12:35:14;4.28;;;1.20;;
69161;SDS011;56269;51.738;21.652;2022-07-29T12:37:45;4.65;;;1.27;;
69161;SDS011;56269;51.738;21.652;2022-07-29T12:40:17;6.57;;;1.45;;
69161;SDS011;56269;51.738;21.652;2022-07-29T12:45:43;3.95;;;1.23;;
69161;SDS011;56269;51.738;21.652;2022-07-29T12:48:11;4.28;;;1.40;;
69161;SDS011;56269;51.738;21.652;2022-07-29T12:50:51;3.42;;;1.20;;
69161;SDS011;56269;51.738;21.652;2022-07-29T12:53:22;5.18;;;1.45;;
69161;SDS011;56269;51.738;21.652;2022-07-29T12:55:50;4.13;;;1.43;;
69161;SDS011;56269;51.738;21.652;2022-07-29T12:58:27;3.13;;;1.20;;
69161;SDS011;56269;51.738;21.652;2022-07-29T13:01:09;4.20;;;1.30;;
69161;SDS011;56269;51.738;21.652;2022-07-29T13:03:44;4.50;;;1.30;;
69161;SDS011;56269;51.738;21.652;2022-07-29T13:11:42;4.82;;;1.35;;
69161;SDS011;56269;51.738;21.652;2022-07-29T13:14:10;3.63;;;1.17;;
69161;SDS011;56269;51.738;21.652;2022-07-29T13:19:49;6.07;;;1.50;;
69161;SDS011;56269;51.738;21.652;2022-07-29T13:22:22;5.57;;;1.40;;
69161;SDS011;56269;51.738;21.652;2022-07-29T13:27:28;3.92;;;1.23;;
69161;SDS011;56269;51.738;21.652;2022-07-29T13:29:59;6.88;;;1.40;;
69161;SDS011;56269;51.738;21.652;2022-07-29T13:32:27;3.90;;;1.20;;
69161;SDS011;56269;51.738;21.652;2022-07-29T13:34:57;6.03;;;1.50;;
69161;SDS011;56269;51.738;21.652;2022-07-29T13:37:25;4.00;;;1.20;;
69161;SDS011;56269;51.738;21.652;2022-07-29T13:39:55;4.38;;;1.30;;
69161;SDS011;56269;51.738;21.652;2022-07-29T13:42:21;3.90;;;1.33;;
69161;SDS011;56269;51.738;21.652;2022-07-29T13:44:48;4.28;;;1.40;;
69161;SDS011;56269;51.738;21.652;2022-07-29T13:47:16;4.80;;;1.57;;
69161;SDS011;56269;51.738;21.652;2022-07-29T13:49:42;3.42;;;1.48;;
69161;SDS011;56269;51.738;21.652;2022-07-29T13:52:09;3.55;;;1.42;;
69161;SDS011;56269;51.738;21.652;2022-07-29T13:54:35;4.20;;;1.40;;
69161;SDS011;56269;51.738;21.652;2022-07-29T13:57:03;5.15;;;1.30;;
69161;SDS011;56269;51.738;21.652;2022-07-29T13:59:30;4.63;;;1.37;;
69161;SDS011;56269;51.738;21.652;2022-07-29T14:01:56;4.70;;;1.50;;
69161;SDS011;56269;51.738;21.652;2022-07-29T14:04:22;7.07;;;1.40;;
69161;SDS011;56269;51.738;21.652;2022-07-29T14:06:51;4.15;;;1.20;;
69161;SDS011;56269;51.738;21.652;2022-07-29T14:09:17;3.50;;;1.23;;
69161;SDS011;56269;51.738;21.652;2022-07-29T14:11:43;3.40;;;1.40;;
69161;SDS011;56269;51.738;21.652;2022-07-29T14:14:09;4.93;;;1.27;;
69161;SDS011;56269;51.738;21.652;2022-07-29T14:16:35;4.45;;;1.40;;
69161;SDS011;56269;51.738;21.652;2022-07-29T14:19:01;4.67;;;1.30;;
69161;SDS011;56269;51.738;21.652;2022-07-29T14:21:28;4.10;;;1.25;;
69161;SDS011;56269;51.738;21.652;2022-07-29T14:23:54;4.32;;;1.50;;
69161;SDS011;56269;51.738;21.652;2022-07-29T14:26:20;5.03;;;1.50;;
69161;SDS011;56269;51.738;21.652;2022-07-29T14:28:47;5.30;;;1.50;;
69161;SDS011;56269;51.738;21.652;2022-07-29T14:31:14;4.47;;;1.30;;
69161;SDS011;56269;51.738;21.652;2022-07-29T14:33:40;4.25;;;1.40;;
69161;SDS011;56269;51.738;21.652;2022-07-29T14:36:06;3.70;;;1.40;;
69161;SDS011;56269;51.738;21.652;2022-07-29T14:38:33;4.35;;;1.58;;
69161;SDS011;56269;51.738;21.652;2022-07-29T14:40:58;3.17;;;1.20;;
69161;SDS011;56269;51.738;21.652;2022-07-29T14:43:25;3.30;;;1.20;;
69161;SDS011;56269;51.738;21.652;2022-07-29T14:45:50;4.28;;;1.35;;
69161;SDS011;56269;51.738;21.652;2022-07-29T14:48:17;3.72;;;1.35;;
69161;SDS011;56269;51.738;21.652;2022-07-29T14:50:43;6.40;;;1.35;;
69161;SDS011;56269;51.738;21.652;2022-07-29T14:53:09;3.70;;;1.20;;
69161;SDS011;56269;51.738;21.652;2022-07-29T14:55:37;4.35;;;1.27;;
69161;SDS011;56269;51.738;21.652;2022-07-29T14:58:03;3.80;;;1.20;;
69161;SDS011;56269;51.738;21.652;2022-07-29T15:00:29;4.85;;;1.25;;
69161;SDS011;56269;51.738;21.652;2022-07-29T15:02:58;4.17;;;1.30;;
69161;SDS011;56269;51.738;21.652;2022-07-29T15:05:25;5.10;;;1.20;;
69161;SDS011;56269;51.738;21.652;2022-07-29T15:07:51;4.32;;;1.45;;
69161;SDS011;56269;51.738;21.652;2022-07-29T15:10:17;5.25;;;1.63;;
69161;SDS011;56269;51.738;21.652;2022-07-29T15:12:44;5.07;;;1.35;;
69161;SDS011;56269;51.738;21.652;2022-07-29T15:15:09;4.43;;;1.30;;
69161;SDS011;56269;51.738;21.652;2022-07-29T15:17:35;4.57;;;1.45;;
69161;SDS011;56269;51.738;21.652;2022-07-29T15:20:02;5.47;;;1.40;;
69161;SDS011;56269;51.738;21.652;2022-07-29T15:22:29;4.10;;;1.20;;
69161;SDS011;56269;51.738;21.652;2022-07-29T15:24:55;3.30;;;1.30;;
69161;SDS011;56269;51.738;21.652;2022-07-29T15:27:21;4.13;;;1.20;;
69161;SDS011;56269;51.738;21.652;2022-07-29T15:29:47;5.40;;;1.48;;
69161;SDS011;56269;51.738;21.652;2022-07-29T15:32:13;4.90;;;1.50;;
69161;SDS011;56269;51.738;21.652;2022-07-29T15:34:39;5.80;;;1.55;;
69161;SDS011;56269;51.738;21.652;2022-07-29T15:37:05;4.47;;;1.40;;